Decoded Metar for PAKN (KING SALMON in AK, USA) (IATA:AKN) | Meteo·Mobile Aviation Weather
aviador You're here:

PAKN Decoded Metar

KING SALMON in AK, USA
Report Time2018-10-19 07:54:00
UTC Time2018-10-19 08:41:53
Flight Rules vfr VFR
Wind010° at 04 kt
W.Decomp.*RWY 36: 4.0 kt HW 0.4 kt LCW
RWY 30: 2.4 kt HW 3.2 kt RCW
W.Rank010° ranks 4
Current wind is below 010° avg. (7.7)
Visibility9999 m
Phenomena:N/A
Clouds:Scattered 090 Hf
Expected CloudBase > 800 ft AGL from Temp-Dew spread
CeilingNone
Temp03°C (ISA -12)
Dew Point01°C (87% RH)
AAT-0.3°C
QNH999 hPa
Density Alt-817 ft
Elevation56 ft
Report Wrong Elevation
Raw Report
PAKN 190754Z 01004KT 10SM SCT090 03/01 A2950=

Extra information for PAKN:More info

Metar Taf Metar & Taf Last 4 Metars F.Rules Stats Wind Profile Meteogram Temp Stats Airport Information Weather charts Add Link Nearby VenuesMetar ALERT Operation Metar Decoded Social comments

AIRNAV info for PAKN